Time;durP1;ratioP1;P1;durP2;ratioP2;P2;SDS_P1;SDS_P2;PMS_P1;PMS_P2;Temp;Humidity;BMP_temperature;BMP_pressure;BME280_temperature;BME280_humidity;BME280_pressure;Samples;Min_cycle;Max_cycle;Signal;HPM_P1;HPM_P2
2023/10/08 00:02:59;;;;;;;10.48;5.10;;;13.40;99.90;;;;;;4883986;29;20112;-62
2023/10/08 00:05:26;;;;;;;10.38;4.95;;;13.30;99.90;;;;;;4890276;29;20480;-61
2023/10/08 00:07:55;;;;;;;11.45;4.88;;;13.20;99.90;;;;;;4889787;29;20088;-62
2023/10/08 00:10:26;;;;;;;13.93;5.38;;;13.20;99.90;;;;;;4889775;29;20037;-62
2023/10/08 00:12:53;;;;;;;12.75;5.63;;;13.20;99.90;;;;;;4887898;29;20045;-62
2023/10/08 00:15:19;;;;;;;11.23;5.72;;;13.20;99.90;;;;;;4889947;29;20036;-62
2023/10/08 00:17:49;;;;;;;13.07;4.90;;;13.20;99.90;;;;;;4895182;29;20450;-62
2023/10/08 00:20:25;;;;;;;11.10;5.38;;;13.20;99.90;;;;;;4897712;29;20178;-62
2023/10/08 00:22:55;;;;;;;9.57;4.63;;;13.30;99.90;;;;;;4899675;29;20363;-61
2023/10/08 00:25:24;;;;;;;11.70;4.60;;;13.20;99.90;;;;;;4896983;29;20040;-62
2023/10/08 00:27:51;;;;;;;8.32;4.63;;;13.20;99.90;;;;;;4897074;29;20064;-62
2023/10/08 00:30:17;;;;;;;10.73;4.18;;;13.30;99.90;;;;;;4897125;29;20128;-62
2023/10/08 00:32:45;;;;;;;10.10;4.15;;;13.30;99.90;;;;;;4898331;29;20051;-62
2023/10/08 00:35:13;;;;;;;10.23;4.28;;;13.20;99.90;;;;;;4898689;29;20076;-62
2023/10/08 00:37:41;;;;;;;9.70;5.03;;;13.30;99.90;;;;;;4878127;29;20117;-61
2023/10/08 00:40:14;;;;;;;9.13;3.92;;;13.30;99.90;;;;;;4898619;29;20036;-62
2023/10/08 00:42:45;;;;;;;7.78;3.38;;;13.30;99.90;;;;;;4898272;29;20378;-62
2023/10/08 00:45:16;;;;;;;12.48;4.15;;;13.30;99.90;;;;;;4879137;29;20139;-61
2023/10/08 00:47:43;;;;;;;8.07;3.58;;;13.40;99.90;;;;;;4897516;29;20163;-62
2023/10/08 00:50:20;;;;;;;9.82;3.97;;;13.40;99.90;;;;;;4894675;29;20055;-62
2023/10/08 00:53:09;;;;;;;10.52;3.95;;;13.30;99.90;;;;;;4898885;29;20131;-62
2023/10/08 00:55:37;;;;;;;10.27;4.63;;;13.40;99.90;;;;;;4881160;29;20059;-62
2023/10/08 00:58:09;;;;;;;13.73;4.35;;;13.30;99.90;;;;;;4881422;29;20135;-62
2023/10/08 01:00:41;;;;;;;15.73;4.20;;;13.40;99.90;;;;;;4878222;29;20135;-62
2023/10/08 01:03:26;;;;;;;9.15;4.13;;;13.40;99.90;;;;;;4883136;29;20049;-62
2023/10/08 01:09:43;;;;;;;11.07;4.45;;;13.50;99.90;;;;;;4896759;29;20066;-62
2023/10/08 01:12:26;;;;;;;10.50;4.75;;;13.40;99.90;;;;;;4898451;29;20060;-62
2023/10/08 01:15:07;;;;;;;9.90;4.45;;;13.40;99.90;;;;;;4881520;29;20487;-62
2023/10/08 01:17:45;;;;;;;8.90;4.47;;;13.40;99.90;;;;;;4874743;29;20047;-62
2023/10/08 01:20:32;;;;;;;12.68;4.53;;;13.40;99.90;;;;;;4881087;29;20129;-62
2023/10/08 01:23:16;;;;;;;11.25;4.18;;;13.40;99.90;;;;;;4909875;29;20497;-62
2023/10/08 01:25:50;;;;;;;13.50;4.55;;;13.30;99.90;;;;;;4903541;29;20465;-62
2023/10/08 01:28:26;;;;;;;13.05;4.38;;;13.40;99.90;;;;;;4884009;29;20051;-62
2023/10/08 01:30:55;;;;;;;12.70;5.63;;;13.30;99.90;;;;;;4897298;29;20505;-61
2023/10/08 01:33:22;;;;;;;12.57;4.72;;;13.30;99.90;;;;;;4878198;29;20049;-62
2023/10/08 01:35:49;;;;;;;11.68;4.85;;;13.50;99.90;;;;;;4876406;29;20044;-62
2023/10/08 01:38:23;;;;;;;12.18;4.60;;;13.30;99.90;;;;;;4895725;29;20481;-60
2023/10/08 01:40:51;;;;;;;14.07;5.68;;;13.30;99.90;;;;;;4880124;29;20044;-59
2023/10/08 01:43:18;;;;;;;16.10;6.13;;;13.40;99.90;;;;;;4897605;29;20558;-62
2023/10/08 01:45:48;;;;;;;;;;;13.60;99.90;;;;;;4879826;29;20053;-61
2023/10/08 01:48:27;;;;;;;13.63;5.60;;;13.80;99.90;;;;;;4894678;29;19927;-61
2023/10/08 01:50:56;;;;;;;11.27;6.03;;;13.90;99.90;;;;;;4891587;29;20048;-61
2023/10/08 01:53:22;;;;;;;11.95;5.35;;;14.00;99.90;;;;;;4896561;29;20049;-61
2023/10/08 01:55:49;;;;;;;10.65;5.30;;;14.10;99.90;;;;;;4897305;29;20108;-62
2023/10/08 01:58:17;;;;;;;10.60;5.53;;;14.10;99.90;;;;;;4877557;29;20067;-62
2023/10/08 02:00:46;;;;;;;12.32;5.35;;;14.20;99.90;;;;;;4880240;29;20058;-61
2023/10/08 02:03:16;;;;;;;12.27;5.88;;;14.20;99.90;;;;;;4889452;29;20064;-62
2023/10/08 02:05:43;;;;;;;13.05;5.88;;;14.20;99.90;;;;;;4880188;29;20052;-61
2023/10/08 02:08:12;;;;;;;11.23;5.00;;;14.20;99.90;;;;;;4895929;29;20064;-62
2023/10/08 02:10:40;;;;;;;11.50;5.38;;;14.20;99.90;;;;;;4879819;29;20045;-62
2023/10/08 02:13:08;;;;;;;13.13;5.50;;;14.30;99.90;;;;;;4895620;29;20093;-61
2023/10/08 02:15:43;;;;;;;11.55;4.88;;;14.30;99.90;;;;;;4888084;29;20052;-61
2023/10/08 02:18:10;;;;;;;11.13;5.30;;;14.20;99.90;;;;;;4878006;29;20080;-62
2023/10/08 02:20:39;;;;;;;8.82;5.10;;;14.20;99.90;;;;;;4878677;29;20534;-62
2023/10/08 02:23:06;;;;;;;13.50;5.65;;;14.20;99.90;;;;;;4888333;29;20491;-62
2023/10/08 02:25:37;;;;;;;11.23;5.20;;;14.20;99.90;;;;;;4879914;29;20052;-62
2023/10/08 02:28:04;;;;;;;9.95;5.25;;;14.20;99.90;;;;;;4880036;29;20056;-62
2023/10/08 02:30:31;;;;;;;8.80;4.45;;;14.20;99.90;;;;;;4876528;29;20056;-62
2023/10/08 02:32:58;;;;;;;11.23;5.22;;;14.20;99.90;;;;;;4890960;29;20498;-62
2023/10/08 02:35:27;;;;;;;11.48;5.80;;;14.20;99.90;;;;;;4896140;29;20464;-62
2023/10/08 02:37:54;;;;;;;11.23;5.28;;;14.30;99.90;;;;;;4896680;29;20069;-62
2023/10/08 02:40:27;;;;;;;;;;;14.30;99.90;;;;;;4877852;29;20132;-62
2023/10/08 02:42:58;;;;;;;11.73;4.97;;;14.30;99.90;;;;;;4896431;29;20380;-61
2023/10/08 02:45:26;;;;;;;13.30;5.03;;;14.30;99.90;;;;;;4879459;29;20079;-59
2023/10/08 02:47:57;;;;;;;13.10;5.25;;;14.20;99.90;;;;;;4895090;29;20434;-62
2023/10/08 02:50:27;;;;;;;13.38;4.93;;;14.10;99.90;;;;;;4895998;29;20416;-62
2023/10/08 02:52:54;;;;;;;12.02;4.72;;;14.20;99.90;;;;;;4895991;29;20502;-62
2023/10/08 02:55:43;;;;;;;10.70;5.25;;;14.20;99.90;;;;;;4892184;29;20486;-62
2023/10/08 02:58:18;;;;;;;10.70;4.38;;;14.20;99.90;;;;;;4896007;29;20053;-62
2023/10/08 03:00:48;;;;;;;13.43;5.38;;;14.10;99.90;;;;;;4893712;29;20041;-62
2023/10/08 03:03:16;;;;;;;10.95;3.90;;;14.00;99.90;;;;;;4891750;29;20068;-62
2023/10/08 03:05:51;;;;;;;11.27;4.47;;;13.90;99.90;;;;;;4877845;29;20522;-62
2023/10/08 03:08:20;;;;;;;9.65;4.68;;;13.90;99.90;;;;;;4894908;29;20052;-60
2023/10/08 03:10:55;;;;;;;11.00;5.30;;;13.90;99.90;;;;;;4878909;29;20096;-62
2023/10/08 03:13:23;;;;;;;13.55;5.68;;;14.00;99.90;;;;;;4894842;29;20040;-61
2023/10/08 03:18:51;;;;;;;11.50;5.15;;;14.10;99.90;;;;;;4895715;29;20100;-62
2023/10/08 03:21:20;;;;;;;15.15;5.47;;;14.20;99.90;;;;;;4878992;29;20494;-62
2023/10/08 03:23:51;;;;;;;14.77;5.13;;;14.20;99.90;;;;;;4895031;29;20409;-62
2023/10/08 03:29:00;;;;;;;12.35;5.30;;;14.30;99.90;;;;;;4895756;29;20033;-60
2023/10/08 03:34:15;;;;;;;10.68;4.57;;;14.20;99.90;;;;;;4879112;29;20053;-62
2023/10/08 03:36:45;;;;;;;13.30;5.13;;;14.20;99.90;;;;;;4892175;29;20128;-62
2023/10/08 03:39:13;;;;;;;13.88;4.78;;;14.30;99.90;;;;;;4885810;29;20064;-60
2023/10/08 03:41:41;;;;;;;12.50;4.50;;;14.30;99.90;;;;;;4889027;29;20526;-62
2023/10/08 03:44:16;;;;;;;11.98;4.85;;;14.20;99.90;;;;;;4894515;29;20462;-62
2023/10/08 03:46:46;;;;;;;10.25;4.55;;;14.30;99.90;;;;;;4893388;29;20521;-60
2023/10/08 03:51:52;;;;;;;14.93;5.35;;;14.30;99.90;;;;;;4895311;29;20076;-61
2023/10/08 03:54:27;;;;;;;12.05;4.60;;;14.30;99.90;;;;;;4894633;29;20052;-62
2023/10/08 03:56:57;;;;;;;12.95;4.40;;;14.30;99.90;;;;;;4899468;29;20395;-61
2023/10/08 04:02:14;;;;;;;14.57;4.82;;;14.20;99.90;;;;;;4882710;29;20051;-62
2023/10/08 04:04:51;;;;;;;11.60;5.38;;;14.10;99.90;;;;;;4898016;29;20052;-62
2023/10/08 04:08:05;;;;;;;13.45;5.82;;;14.10;99.90;;;;;;4899146;29;20131;-61
2023/10/08 04:13:08;;;;;;;12.18;5.07;;;14.20;99.90;;;;;;4897731;29;20150;-62
2023/10/08 04:15:42;;;;;;;10.60;4.72;;;14.30;99.90;;;;;;4898932;29;20044;-62
2023/10/08 04:18:10;;;;;;;12.32;4.93;;;14.30;99.90;;;;;;4898924;29;20041;-62
2023/10/08 04:23:18;;;;;;;11.07;4.95;;;14.30;99.90;;;;;;4897953;29;20048;-61
2023/10/08 04:25:46;;;;;;;13.30;5.18;;;14.30;99.90;;;;;;4891457;29;20076;-62
2023/10/08 04:28:20;;;;;;;9.48;4.82;;;14.40;99.90;;;;;;4898565;29;20092;-62
2023/10/08 04:30:48;;;;;;;13.10;5.15;;;14.40;99.90;;;;;;4896351;29;20040;-62
2023/10/08 04:33:14;;;;;;;13.70;5.47;;;14.50;99.90;;;;;;4898845;29;20383;-60
2023/10/08 04:35:51;;;;;;;10.30;4.63;;;14.50;99.90;;;;;;4898170;29;20281;-62
2023/10/08 04:38:25;;;;;;;8.80;4.38;;;14.40;99.90;;;;;;4898738;29;20049;-61
2023/10/08 04:40:53;;;;;;;14.20;5.18;;;14.40;99.90;;;;;;4896116;29;20435;-61
2023/10/08 04:43:25;;;;;;;;;;;14.20;99.90;;;;;;4899118;29;20052;-62
2023/10/08 04:45:59;;;;;;;10.02;4.50;;;14.30;99.90;;;;;;4898607;29;19923;-62
2023/10/08 04:48:31;;;;;;;12.45;4.90;;;14.30;99.90;;;;;;4896616;29;20545;-61
2023/10/08 04:50:59;;;;;;;12.93;4.80;;;14.30;99.90;;;;;;4898147;29;20052;-62
2023/10/08 04:53:37;;;;;;;13.57;4.85;;;14.30;99.90;;;;;;4898039;29;20076;-61
2023/10/08 04:56:17;;;;;;;12.02;5.38;;;14.40;99.90;;;;;;4898914;29;20096;-62
2023/10/08 04:58:48;;;;;;;12.63;5.15;;;14.40;99.90;;;;;;4896975;29;20040;-62
2023/10/08 05:01:17;;;;;;;13.45;5.25;;;14.30;99.90;;;;;;4896784;29;20045;-62
2023/10/08 05:09:09;;;;;;;12.68;4.35;;;14.30;99.90;;;;;;4898092;29;20052;-61
2023/10/08 05:17:45;;;;;;;13.32;4.82;;;14.20;99.90;;;;;;4895553;29;20075;-62
2023/10/08 05:25:08;;;;;;;12.05;5.25;;;14.30;99.90;;;;;;4897740;29;20053;-62
2023/10/08 05:33:06;;;;;;;11.85;4.47;;;14.30;99.90;;;;;;4895207;29;20124;-62
2023/10/08 05:57:14;;;;;;;11.15;4.90;;;14.30;99.90;;;;;;4889643;29;20052;-60
2023/10/08 06:02:27;;;;;;;10.73;4.72;;;14.30;99.90;;;;;;4900237;29;20056;-62
2023/10/08 06:05:20;;;;;;;15.63;4.70;;;14.40;99.90;;;;;;4896859;29;20045;-62
2023/10/08 06:13:04;;;;;;;9.65;4.35;;;14.40;99.90;;;;;;4896898;29;20044;-60
2023/10/08 06:15:48;;;;;;;10.13;4.35;;;14.30;99.90;;;;;;4896639;29;20576;-60
2023/10/08 06:18:18;;;;;;;14.18;5.00;;;14.10;99.90;;;;;;4896571;29;20044;-63
2023/10/08 06:20:48;;;;;;;10.07;4.03;;;14.10;99.90;;;;;;4895990;29;20044;-62
2023/10/08 06:23:18;;;;;;;11.48;4.07;;;14.20;99.90;;;;;;4896884;29;20049;-61
2023/10/08 06:26:05;;;;;;;19.15;5.10;;;14.20;99.90;;;;;;4896839;29;20040;-62
2023/10/08 06:28:35;;;;;;;14.00;5.60;;;14.20;99.90;;;;;;4896643;29;20112;-61
2023/10/08 06:31:06;;;;;;;8.30;4.53;;;14.30;99.90;;;;;;4896168;29;20510;-62
2023/10/08 06:33:33;;;;;;;12.50;4.90;;;14.40;99.90;;;;;;4889151;29;20478;-61
2023/10/08 06:38:41;;;;;;;12.75;5.05;;;14.40;99.90;;;;;;4895449;29;20026;-62
2023/10/08 06:41:17;;;;;;;14.68;4.85;;;14.40;99.90;;;;;;4896381;29;20044;-62
2023/10/08 06:44:14;;;;;;;13.43;4.90;;;14.30;99.90;;;;;;4889611;29;20053;-62
2023/10/08 06:46:41;;;;;;;15.05;5.13;;;14.30;99.90;;;;;;4895886;29;20052;-61
2023/10/08 06:49:13;;;;;;;15.40;4.75;;;14.30;99.90;;;;;;4884096;29;20430;-62
2023/10/08 06:51:43;;;;;;;13.57;5.22;;;14.40;99.90;;;;;;4895248;29;20107;-62
2023/10/08 06:54:13;;;;;;;11.95;5.03;;;14.50;99.90;;;;;;4895262;29;20048;-61
2023/10/08 06:56:46;;;;;;;10.52;4.75;;;14.40;99.90;;;;;;4893551;29;20498;-60
2023/10/08 06:59:14;;;;;;;18.67;5.30;;;14.40;99.90;;;;;;4896073;29;20044;-62
2023/10/08 07:01:46;;;;;;;12.75;4.90;;;14.40;99.90;;;;;;4894149;29;20044;-62
2023/10/08 07:04:14;;;;;;;13.93;5.05;;;14.60;99.90;;;;;;4898952;29;20048;-62
2023/10/08 07:06:50;;;;;;;12.25;4.85;;;14.60;99.90;;;;;;4896934;29;20044;-61
2023/10/08 07:09:28;;;;;;;19.35;5.63;;;14.60;99.90;;;;;;4896290;29;20371;-62
2023/10/08 07:11:56;;;;;;;10.43;5.20;;;14.80;99.90;;;;;;4892942;29;20051;-62
2023/10/08 07:14:26;;;;;;;12.65;4.90;;;14.90;99.90;;;;;;4890285;29;20455;-62
2023/10/08 07:16:59;;;;;;;19.13;6.72;;;15.10;99.90;;;;;;4898567;29;20041;-62
2023/10/08 07:19:37;;;;;;;17.25;5.53;;;15.00;99.90;;;;;;4894538;29;20044;-62
2023/10/08 07:22:17;;;;;;;10.98;4.43;;;15.10;99.90;;;;;;4897338;29;20510;-61
2023/10/08 07:24:46;;;;;;;9.52;4.53;;;15.10;99.90;;;;;;4894200;29;20466;-61
2023/10/08 07:27:13;;;;;;;;;;;15.10;99.90;;;;;;4894586;29;20053;-62
2023/10/08 07:29:40;;;;;;;16.08;6.35;;;15.10;99.90;;;;;;4894651;29;20404;-61
2023/10/08 07:32:11;;;;;;;18.20;7.45;;;15.10;99.90;;;;;;4898363;29;20144;-61
2023/10/08 07:34:41;;;;;;;18.60;6.95;;;15.20;99.90;;;;;;4893581;29;20052;-61
2023/10/08 07:37:11;;;;;;;13.60;6.13;;;15.20;99.90;;;;;;4893497;29;20041;-61
2023/10/08 07:39:46;;;;;;;12.20;5.95;;;15.30;99.90;;;;;;4899341;29;20056;-62
2023/10/08 07:42:13;;;;;;;19.02;4.75;;;15.40;99.90;;;;;;4899175;29;20119;-62
2023/10/08 07:44:40;;;;;;;15.07;5.60;;;15.50;99.90;;;;;;4899358;29;20036;-62
2023/10/08 07:47:10;;;;;;;15.25;5.28;;;15.50;99.90;;;;;;4899309;29;20048;-62
2023/10/08 07:49:37;;;;;;;10.80;4.68;;;15.60;99.90;;;;;;4896518;29;20044;-62
2023/10/08 07:52:05;;;;;;;19.88;5.30;;;15.70;99.90;;;;;;4897215;29;20060;-61
2023/10/08 07:54:35;;;;;;;16.38;4.80;;;15.90;99.90;;;;;;4899236;29;20375;-62
2023/10/08 07:57:08;;;;;;;11.38;4.90;;;16.00;99.90;;;;;;4894609;29;20062;-62
2023/10/08 07:59:41;;;;;;;15.75;5.15;;;16.20;99.90;;;;;;4899258;29;20059;-62
2023/10/08 08:02:12;;;;;;;14.88;5.68;;;16.40;99.90;;;;;;4894439;29;20045;-61
2023/10/08 08:04:40;;;;;;;16.23;5.78;;;16.60;99.90;;;;;;4898869;29;20127;-62
2023/10/08 08:07:07;;;;;;;19.80;5.82;;;16.60;99.90;;;;;;4897887;29;20049;-62
2023/10/08 08:09:37;;;;;;;17.17;4.85;;;16.70;99.90;;;;;;4895245;29;20045;-60
2023/10/08 08:12:11;;;;;;;16.33;4.82;;;16.60;99.90;;;;;;4899139;29;20044;-62
2023/10/08 08:14:41;;;;;;;15.02;4.60;;;16.40;99.90;;;;;;4903101;29;20124;-61
2023/10/08 08:17:14;;;;;;;14.10;4.35;;;16.60;99.90;;;;;;4908033;29;20040;-60
2023/10/08 08:19:44;;;;;;;13.35;4.95;;;16.50;99.90;;;;;;4906103;29;20083;-56
2023/10/08 08:22:20;;;;;;;19.98;4.55;;;16.60;99.90;;;;;;4905956;29;20043;-59
2023/10/08 08:25:02;;;;;;;12.40;4.63;;;16.60;99.90;;;;;;4899830;29;20129;-62
2023/10/08 08:27:31;;;;;;;14.63;4.43;;;16.80;99.90;;;;;;4897357;29;20477;-62
2023/10/08 08:30:10;;;;;;;14.13;4.20;;;16.90;99.90;;;;;;4898930;29;20040;-61
2023/10/08 08:32:43;;;;;;;13.10;6.03;;;16.90;99.90;;;;;;4898989;29;20037;-60
2023/10/08 08:35:11;;;;;;;25.08;6.63;;;17.10;99.90;;;;;;4898379;29;20032;-62
2023/10/08 08:37:39;;;;;;;15.68;5.72;;;17.20;99.90;;;;;;4898947;29;20040;-62
2023/10/08 08:40:10;;;;;;;11.77;5.13;;;17.30;99.90;;;;;;4897702;29;20393;-62
2023/10/08 08:42:37;;;;;;;11.80;5.32;;;17.40;99.90;;;;;;4899226;29;20566;-60
2023/10/08 08:45:11;;;;;;;12.32;5.47;;;17.60;99.90;;;;;;4898678;29;20054;-61
2023/10/08 08:47:40;;;;;;;15.50;5.93;;;17.80;99.90;;;;;;4899039;29;20055;-62
2023/10/08 08:50:08;;;;;;;15.35;5.38;;;18.00;99.90;;;;;;4897648;29;20128;-62
2023/10/08 08:52:40;;;;;;;17.55;5.45;;;18.00;99.90;;;;;;4898831;29;20049;-62
2023/10/08 08:55:14;;;;;;;16.25;5.30;;;18.10;99.90;;;;;;4898273;29;20045;-61
2023/10/08 08:57:46;;;;;;;12.48;4.60;;;18.10;99.90;;;;;;4897655;29;20044;-62
2023/10/08 09:00:18;;;;;;;12.85;5.10;;;18.10;99.90;;;;;;4897997;29;20092;-62
2023/10/08 09:02:47;;;;;;;12.32;4.93;;;18.20;99.90;;;;;;4898521;29;20040;-62
2023/10/08 09:08:04;;;;;;;12.13;4.72;;;18.40;99.90;;;;;;4898641;29;20569;-62
2023/10/08 09:10:51;;;;;;;10.27;4.57;;;18.60;99.90;;;;;;4898095;29;20045;-59
2023/10/08 09:13:22;;;;;;;11.48;4.00;;;18.70;99.90;;;;;;4896187;29;20086;-62
2023/10/08 09:15:51;;;;;;;16.40;5.05;;;18.80;99.90;;;;;;4898412;29;20128;-62
2023/10/08 09:18:22;;;;;;;13.15;5.20;;;18.70;99.90;;;;;;4897859;29;20392;-62
2023/10/08 09:20:49;;;;;;;15.02;5.15;;;18.50;99.90;;;;;;4898304;29;20401;-62
2023/10/08 09:23:17;;;;;;;12.85;5.45;;;18.30;99.90;;;;;;4897194;29;20528;-60
2023/10/08 09:25:48;;;;;;;12.32;5.10;;;18.20;99.90;;;;;;4898414;29;20542;-62
2023/10/08 09:28:16;;;;;;;11.45;5.50;;;18.00;99.90;;;;;;4894918;29;20044;-62
2023/10/08 09:30:44;;;;;;;14.35;4.90;;;17.90;99.90;;;;;;4894849;29;20116;-62
2023/10/08 09:33:13;;;;;;;13.52;5.63;;;17.70;99.90;;;;;;4896623;29;20065;-60
2023/10/08 09:35:43;;;;;;;12.02;5.35;;;17.60;99.90;;;;;;4893922;29;20068;-60
2023/10/08 09:38:11;;;;;;;15.32;5.22;;;17.50;99.90;;;;;;4896757;29;20044;-62
2023/10/08 09:40:41;;;;;;;16.83;4.97;;;17.30;99.90;;;;;;4877680;29;20139;-62
2023/10/08 09:43:11;;;;;;;12.00;5.03;;;17.30;99.90;;;;;;4897369;29;20059;-62
2023/10/08 09:45:50;;;;;;;13.52;5.85;;;17.30;99.90;;;;;;4895466;29;20055;-62
2023/10/08 09:48:20;;;;;;;15.15;6.35;;;17.30;99.90;;;;;;4889946;29;20076;-62
2023/10/08 09:50:51;;;;;;;12.00;5.40;;;17.40;99.90;;;;;;4895634;29;20052;-62
2023/10/08 09:53:27;;;;;;;12.68;5.38;;;17.40;99.90;;;;;;4896659;29;20052;-62
2023/10/08 09:55:55;;;;;;;13.43;4.95;;;17.50;99.90;;;;;;4897036;29;20494;-62
2023/10/08 09:58:24;;;;;;;12.68;5.45;;;17.60;99.90;;;;;;4896988;29;20047;-62
2023/10/08 10:00:53;;;;;;;15.55;6.05;;;17.50;99.90;;;;;;4895771;29;20124;-62
2023/10/08 10:03:23;;;;;;;13.45;5.22;;;17.60;99.90;;;;;;4896358;29;20037;-61
2023/10/08 10:05:50;;;;;;;12.57;6.25;;;17.40;99.90;;;;;;4896669;29;20120;-62
2023/10/08 10:08:17;;;;;;;13.27;5.28;;;17.50;99.90;;;;;;4894759;29;20036;-62
2023/10/08 10:10:47;;;;;;;17.83;6.18;;;17.40;99.90;;;;;;4895234;29;20116;-62
2023/10/08 10:13:16;;;;;;;14.65;5.47;;;17.40;99.90;;;;;;4896286;29;20044;-61
2023/10/08 10:15:44;;;;;;;15.65;5.50;;;17.30;99.90;;;;;;4894948;29;20049;-61
2023/10/08 10:18:14;;;;;;;10.32;5.32;;;17.40;99.90;;;;;;4895660;29;20502;-62
2023/10/08 10:20:50;;;;;;;14.77;6.05;;;17.40;99.90;;;;;;4895384;29;20037;-61
2023/10/08 10:23:40;;;;;;;13.73;5.90;;;17.40;99.90;;;;;;4896769;29;20113;-63
2023/10/08 10:26:28;;;;;;;21.20;5.20;;;17.40;99.90;;;;;;4894792;29;20047;-62
2023/10/08 10:29:07;;;;;;;12.75;5.00;;;17.40;99.90;;;;;;4898544;29;20569;-62
2023/10/08 10:31:35;;;;;;;19.90;5.47;;;17.50;99.90;;;;;;4901030;29;20048;-62
2023/10/08 10:34:08;;;;;;;13.60;5.22;;;17.50;99.90;;;;;;4905701;29;20064;-62
2023/10/08 10:36:42;;;;;;;16.42;5.30;;;17.50;99.90;;;;;;4900001;29;20043;-62
2023/10/08 10:39:16;;;;;;;13.32;4.47;;;17.60;99.90;;;;;;4899479;29;20068;-62
2023/10/08 10:41:48;;;;;;;14.63;4.93;;;17.70;99.90;;;;;;4893628;29;20465;-62
2023/10/08 10:44:15;;;;;;;16.42;4.70;;;17.70;99.90;;;;;;4896270;29;20575;-62
2023/10/08 10:46:43;;;;;;;;;;;17.80;99.90;;;;;;4879836;29;20127;-62
2023/10/08 10:49:22;;;;;;;15.80;5.45;;;17.90;99.90;;;;;;4895016;29;19923;-62
2023/10/08 10:51:52;;;;;;;14.70;4.30;;;17.90;99.90;;;;;;4890778;29;20064;-62
2023/10/08 10:54:23;;;;;;;14.80;4.78;;;17.90;99.90;;;;;;4894962;29;20046;-62
2023/10/08 10:57:03;;;;;;;18.55;6.15;;;18.00;99.90;;;;;;4895183;29;20057;-62
2023/10/08 10:59:37;;;;;;;19.60;6.25;;;18.00;99.90;;;;;;4895738;29;20044;-62
2023/10/08 11:02:30;;;;;;;16.13;6.55;;;18.00;99.90;;;;;;4896388;29;20481;-62
2023/10/08 11:05:08;;;;;;;11.32;4.97;;;17.90;99.90;;;;;;4896053;29;20459;-62
2023/10/08 11:07:36;;;;;;;17.80;4.50;;;17.90;99.90;;;;;;4894358;29;20044;-62
2023/10/08 11:10:09;;;;;;;16.05;5.28;;;17.90;99.90;;;;;;4895783;29;20288;-62
2023/10/08 11:12:46;;;;;;;14.75;5.18;;;17.90;99.90;;;;;;4896014;29;20578;-62
2023/10/08 11:15:16;;;;;;;17.70;5.50;;;17.80;99.90;;;;;;4896076;29;20044;-62
2023/10/08 11:17:47;;;;;;;12.98;5.45;;;17.70;99.90;;;;;;4897698;29;20303;-62
2023/10/08 11:20:27;;;;;;;13.43;5.53;;;17.60;99.90;;;;;;4895172;29;20049;-62
2023/10/08 11:22:54;;;;;;;15.20;5.82;;;17.50;99.90;;;;;;4892707;29;20045;-62
2023/10/08 11:25:24;;;;;;;;;;;17.40;99.90;;;;;;4901094;29;20041;-62
2023/10/08 11:27:58;;;;;;;14.75;6.35;;;17.30;99.90;;;;;;4900930;29;19945;-62
2023/10/08 11:30:30;;;;;;;24.35;6.30;;;17.20;99.90;;;;;;4896202;29;20521;-62
2023/10/08 11:33:00;;;;;;;17.90;5.55;;;17.20;99.90;;;;;;4895448;29;20128;-62
2023/10/08 11:35:28;;;;;;;18.08;5.85;;;17.20;99.90;;;;;;4887208;29;20524;-62
2023/10/08 11:38:00;;;;;;;16.73;5.93;;;17.20;99.90;;;;;;4895534;29;20037;-62
2023/10/08 11:40:48;;;;;;;15.20;5.20;;;17.20;99.90;;;;;;4894846;29;20048;-62
2023/10/08 11:43:15;;;;;;;21.42;6.00;;;17.20;99.90;;;;;;4893009;29;20045;-62
2023/10/08 11:45:48;;;;;;;;;;;17.20;99.90;;;;;;4888944;29;20037;-62
2023/10/08 11:48:21;;;;;;;15.70;5.35;;;17.10;99.90;;;;;;4886724;29;19923;-62
2023/10/08 11:50:50;;;;;;;16.63;5.88;;;17.10;99.90;;;;;;4892219;29;20175;-62
2023/10/08 11:53:19;;;;;;;18.40;6.15;;;17.10;99.90;;;;;;4889558;29;20053;-62
2023/10/08 11:55:47;;;;;;;15.27;6.00;;;17.20;99.90;;;;;;4895361;29;20550;-62
2023/10/08 11:58:17;;;;;;;19.98;5.70;;;17.20;99.90;;;;;;4901151;29;20041;-62
2023/10/08 12:00:45;;;;;;;14.10;4.50;;;17.20;99.90;;;;;;4912629;29;20040;-62
2023/10/08 12:03:18;;;;;;;18.08;5.85;;;17.20;99.90;;;;;;4905597;29;20045;-62
2023/10/08 12:05:58;;;;;;;12.90;5.43;;;17.20;99.90;;;;;;4894904;29;20642;-62
2023/10/08 12:08:29;;;;;;;14.60;5.68;;;17.20;99.90;;;;;;4894661;29;20127;-62
2023/10/08 12:10:56;;;;;;;12.88;5.60;;;17.10;99.90;;;;;;4904403;29;20033;-62
2023/10/08 12:13:24;;;;;;;18.40;6.95;;;17.20;99.90;;;;;;4896650;29;20131;-62
2023/10/08 12:16:12;;;;;;;20.13;6.40;;;17.20;99.90;;;;;;4898032;29;20123;-62
2023/10/08 12:18:43;;;;;;;15.38;5.32;;;17.10;99.90;;;;;;4910850;29;20045;-62
2023/10/08 12:21:10;;;;;;;13.82;6.80;;;17.10;99.90;;;;;;4897218;29;20044;-60
2023/10/08 12:23:38;;;;;;;21.05;6.88;;;17.10;99.90;;;;;;4894128;29;20527;-62
2023/10/08 12:26:07;;;;;;;21.33;6.78;;;17.10;99.90;;;;;;4893365;29;20056;-62
2023/10/08 12:28:36;;;;;;;21.90;8.80;;;17.10;99.90;;;;;;4897453;29;20052;-62
2023/10/08 12:31:06;;;;;;;18.52;7.22;;;17.10;99.90;;;;;;4896784;29;20671;-62
2023/10/08 12:33:33;;;;;;;18.65;7.72;;;17.10;99.90;;;;;;4898903;29;20104;-62
2023/10/08 12:36:10;;;;;;;14.83;7.07;;;17.10;99.90;;;;;;4898150;29;20048;-62
2023/10/08 12:38:42;;;;;;;16.85;6.40;;;17.10;99.90;;;;;;4892181;29;20048;-62
2023/10/08 12:41:12;;;;;;;14.57;5.78;;;17.00;99.90;;;;;;4898803;29;20048;-62
2023/10/08 12:43:44;;;;;;;20.88;5.78;;;17.10;99.90;;;;;;4896617;29;20052;-62
2023/10/08 12:46:18;;;;;;;22.67;7.45;;;17.10;99.90;;;;;;4898725;29;20122;-62
2023/10/08 12:48:48;;;;;;;20.05;8.23;;;17.10;99.90;;;;;;4898325;29;20052;-62
2023/10/08 12:51:15;;;;;;;19.75;6.75;;;17.00;99.90;;;;;;4896596;29;20049;-62
2023/10/08 12:53:50;;;;;;;;;;;17.00;99.90;;;;;;4897827;29;20115;-62
2023/10/08 12:56:21;;;;;;;17.83;6.65;;;17.00;99.90;;;;;;4896878;29;20023;-62
2023/10/08 12:58:48;;;;;;;25.02;8.93;;;17.00;99.90;;;;;;4898424;29;20055;-61
2023/10/08 13:01:19;;;;;;;18.52;7.88;;;17.00;99.90;;;;;;4897383;29;20128;-62
2023/10/08 13:03:49;;;;;;;27.08;8.90;;;17.00;99.90;;;;;;4898502;29;20049;-63
2023/10/08 13:06:30;;;;;;;19.95;8.20;;;17.00;99.90;;;;;;4892472;29;20037;-61
2023/10/08 13:08:58;;;;;;;22.15;8.40;;;17.00;99.90;;;;;;4898240;29;20051;-63
2023/10/08 13:11:29;;;;;;;18.85;7.53;;;17.00;99.90;;;;;;4897533;29;20047;-63
2023/10/08 13:13:57;;;;;;;24.85;7.53;;;17.00;99.90;;;;;;4896860;29;20151;-62
2023/10/08 13:16:30;;;;;;;15.02;7.43;;;16.80;99.90;;;;;;4897820;29;20048;-62
2023/10/08 13:18:58;;;;;;;19.88;7.25;;;16.70;99.90;;;;;;4897789;29;20056;-63
2023/10/08 13:21:27;;;;;;;18.58;6.22;;;16.60;99.90;;;;;;4897195;29;20041;-63
2023/10/08 13:23:59;;;;;;;21.73;7.43;;;16.50;99.90;;;;;;4896614;29;20052;-62
2023/10/08 13:26:31;;;;;;;19.00;6.35;;;16.50;99.90;;;;;;4896843;29;20055;-62
2023/10/08 13:28:58;;;;;;;19.83;6.63;;;16.50;99.90;;;;;;4900613;29;20040;-63
2023/10/08 13:31:27;;;;;;;16.73;8.50;;;16.40;99.90;;;;;;4902395;29;20053;-62
2023/10/08 13:33:56;;;;;;;23.63;10.82;;;16.40;99.90;;;;;;4896673;29;20032;-63
2023/10/08 13:36:24;;;;;;;22.98;11.48;;;16.50;99.90;;;;;;4896843;29;20048;-63
2023/10/08 13:38:51;;;;;;;24.90;9.48;;;16.50;99.90;;;;;;4892575;29;20063;-62
2023/10/08 13:41:18;;;;;;;18.60;5.95;;;16.40;99.90;;;;;;4904453;29;20048;-62
2023/10/08 13:43:51;;;;;;;16.63;5.43;;;16.50;99.90;;;;;;4902618;29;20040;-62
2023/10/08 13:46:22;;;;;;;16.00;5.57;;;16.50;99.90;;;;;;4888702;29;20262;-62
2023/10/08 13:48:50;;;;;;;18.88;6.80;;;16.60;99.90;;;;;;4897304;29;20037;-63
2023/10/08 13:51:23;;;;;;;;;;;16.60;99.90;;;;;;4897184;29;20044;-63
2023/10/08 13:53:59;;;;;;;16.45;6.72;;;16.50;99.90;;;;;;4892212;29;19998;-63
2023/10/08 13:56:29;;;;;;;19.30;7.35;;;16.50;99.90;;;;;;4888175;29;20525;-63
2023/10/08 13:59:12;;;;;;;17.40;6.15;;;16.50;99.90;;;;;;4891774;29;20501;-63
2023/10/08 14:01:46;;;;;;;16.13;6.47;;;16.50;99.90;;;;;;4888056;29;20048;-63
2023/10/08 14:04:19;;;;;;;20.25;6.78;;;16.50;99.90;;;;;;4890618;29;20037;-63
2023/10/08 14:06:54;;;;;;;17.17;6.38;;;16.40;99.90;;;;;;4888441;29;20060;-62
2023/10/08 14:09:22;;;;;;;17.45;6.93;;;16.40;99.90;;;;;;4893576;29;20127;-63
2023/10/08 14:11:50;;;;;;;21.67;6.75;;;16.40;99.90;;;;;;4892419;29;20049;-63
2023/10/08 14:14:19;;;;;;;22.60;8.30;;;16.40;99.90;;;;;;4893648;29;20045;-62
2023/10/08 14:16:52;;;;;;;21.52;7.18;;;16.40;99.90;;;;;;4886726;29;20555;-63
2023/10/08 14:19:28;;;;;;;22.45;8.05;;;16.40;99.90;;;;;;4894596;29;20048;-63
2023/10/08 14:22:03;;;;;;;19.23;7.07;;;16.50;99.90;;;;;;4888064;29;20041;-62
2023/10/08 14:24:35;;;;;;;18.83;6.72;;;16.50;99.90;;;;;;4889433;29;20414;-61